sensor_id;sensor_type;location;lat;lon;timestamp;P1;durP1;ratioP1;P2;durP2;ratioP2
11531;SDS011;5822;51.000;5.874;2024-02-21T00:01:39;24.02;;;22.33;;
11531;SDS011;5822;51.000;5.874;2024-02-21T00:04:04;25.27;;;23.48;;
11531;SDS011;5822;51.000;5.874;2024-02-21T00:06:30;24.02;;;22.33;;
11531;SDS011;5822;51.000;5.874;2024-02-21T00:08:57;26.33;;;24.23;;
11531;SDS011;5822;51.000;5.874;2024-02-21T00:11:23;26.02;;;24.13;;
11531;SDS011;5822;51.000;5.874;2024-02-21T00:13:48;25.52;;;23.58;;
11531;SDS011;5822;51.000;5.874;2024-02-21T00:16:15;25.67;;;23.88;;
11531;SDS011;5822;51.000;5.874;2024-02-21T00:18:42;27.00;;;25.00;;
11531;SDS011;5822;51.000;5.874;2024-02-21T00:21:08;24.33;;;22.63;;
11531;SDS011;5822;51.000;5.874;2024-02-21T00:23:34;25.63;;;23.73;;
11531;SDS011;5822;51.000;5.874;2024-02-21T00:25:59;25.10;;;23.30;;
11531;SDS011;5822;51.000;5.874;2024-02-21T00:28:25;26.17;;;24.17;;
11531;SDS011;5822;51.000;5.874;2024-02-21T00:30:51;24.30;;;22.60;;
11531;SDS011;5822;51.000;5.874;2024-02-21T00:33:18;23.60;;;22.00;;
11531;SDS011;5822;51.000;5.874;2024-02-21T00:35:44;25.13;;;23.23;;
11531;SDS011;5822;51.000;5.874;2024-02-21T00:38:09;25.40;;;23.50;;
11531;SDS011;5822;51.000;5.874;2024-02-21T00:40:35;24.80;;;23.10;;
11531;SDS011;5822;51.000;5.874;2024-02-21T00:43:01;25.43;;;23.50;;
11531;SDS011;5822;51.000;5.874;2024-02-21T00:45:26;24.23;;;22.52;;
11531;SDS011;5822;51.000;5.874;2024-02-21T00:47:52;23.25;;;21.65;;
11531;SDS011;5822;51.000;5.874;2024-02-21T00:50:18;25.02;;;23.17;;
11531;SDS011;5822;51.000;5.874;2024-02-21T00:52:43;23.73;;;22.03;;
11531;SDS011;5822;51.000;5.874;2024-02-21T00:55:09;25.67;;;23.77;;
11531;SDS011;5822;51.000;5.874;2024-02-21T00:57:35;25.52;;;23.52;;
11531;SDS011;5822;51.000;5.874;2024-02-21T01:00:02;24.60;;;22.80;;
11531;SDS011;5822;51.000;5.874;2024-02-21T01:02:30;24.57;;;22.87;;
11531;SDS011;5822;51.000;5.874;2024-02-21T01:04:57;26.20;;;24.20;;
11531;SDS011;5822;51.000;5.874;2024-02-21T01:07:23;25.30;;;23.40;;
11531;SDS011;5822;51.000;5.874;2024-02-21T01:09:49;24.08;;;22.38;;
11531;SDS011;5822;51.000;5.874;2024-02-21T01:12:16;24.23;;;22.52;;
11531;SDS011;5822;51.000;5.874;2024-02-21T01:14:41;25.88;;;23.90;;
11531;SDS011;5822;51.000;5.874;2024-02-21T01:17:07;26.23;;;24.23;;
11531;SDS011;5822;51.000;5.874;2024-02-21T01:19:33;27.65;;;25.48;;
11531;SDS011;5822;51.000;5.874;2024-02-21T01:21:59;26.38;;;24.42;;
11531;SDS011;5822;51.000;5.874;2024-02-21T01:24:24;26.13;;;24.13;;
11531;SDS011;5822;51.000;5.874;2024-02-21T01:26:50;25.40;;;23.60;;
11531;SDS011;5822;51.000;5.874;2024-02-21T01:29:15;25.40;;;23.50;;
11531;SDS011;5822;51.000;5.874;2024-02-21T01:31:41;24.20;;;22.33;;
11531;SDS011;5822;51.000;5.874;2024-02-21T01:34:07;23.97;;;22.20;;
11531;SDS011;5822;51.000;5.874;2024-02-21T01:36:33;23.80;;;22.10;;
11531;SDS011;5822;51.000;5.874;2024-02-21T01:38:59;23.40;;;21.70;;
11531;SDS011;5822;51.000;5.874;2024-02-21T01:41:24;22.97;;;21.37;;
11531;SDS011;5822;51.000;5.874;2024-02-21T01:43:50;22.20;;;20.70;;
11531;SDS011;5822;51.000;5.874;2024-02-21T01:46:16;23.97;;;22.20;;
11531;SDS011;5822;51.000;5.874;2024-02-21T01:48:42;23.67;;;21.97;;
11531;SDS011;5822;51.000;5.874;2024-02-21T01:51:08;22.73;;;21.23;;
11531;SDS011;5822;51.000;5.874;2024-02-21T01:53:35;24.05;;;22.30;;
11531;SDS011;5822;51.000;5.874;2024-02-21T01:56:03;23.75;;;22.05;;
11531;SDS011;5822;51.000;5.874;2024-02-21T01:58:30;23.25;;;21.60;;
11531;SDS011;5822;51.000;5.874;2024-02-21T02:00:56;23.13;;;21.52;;
11531;SDS011;5822;51.000;5.874;2024-02-21T02:03:22;22.43;;;20.93;;
11531;SDS011;5822;51.000;5.874;2024-02-21T02:05:50;23.17;;;21.50;;
11531;SDS011;5822;51.000;5.874;2024-02-21T02:08:17;23.75;;;22.13;;
11531;SDS011;5822;51.000;5.874;2024-02-21T02:10:48;22.50;;;21.00;;
11531;SDS011;5822;51.000;5.874;2024-02-21T02:13:14;23.10;;;21.50;;
11531;SDS011;5822;51.000;5.874;2024-02-21T02:15:46;24.10;;;22.33;;
11531;SDS011;5822;51.000;5.874;2024-02-21T02:18:14;24.48;;;22.75;;
11531;SDS011;5822;51.000;5.874;2024-02-21T02:20:40;22.77;;;21.20;;
11531;SDS011;5822;51.000;5.874;2024-02-21T02:23:39;22.13;;;20.63;;
11531;SDS011;5822;51.000;5.874;2024-02-21T02:25:58;23.63;;;21.88;;
11531;SDS011;5822;51.000;5.874;2024-02-21T02:28:25;23.42;;;21.73;;
11531;SDS011;5822;51.000;5.874;2024-02-21T02:30:51;23.08;;;21.38;;
11531;SDS011;5822;51.000;5.874;2024-02-21T02:33:17;22.42;;;20.92;;
11531;SDS011;5822;51.000;5.874;2024-02-21T02:35:43;22.10;;;20.60;;
11531;SDS011;5822;51.000;5.874;2024-02-21T02:38:09;23.57;;;21.77;;
11531;SDS011;5822;51.000;5.874;2024-02-21T02:40:37;22.13;;;20.63;;
11531;SDS011;5822;51.000;5.874;2024-02-21T02:43:03;21.77;;;20.27;;
11531;SDS011;5822;51.000;5.874;2024-02-21T02:45:29;23.30;;;21.63;;
11531;SDS011;5822;51.000;5.874;2024-02-21T02:47:55;22.80;;;21.17;;
11531;SDS011;5822;51.000;5.874;2024-02-21T02:50:24;22.33;;;20.83;;
11531;SDS011;5822;51.000;5.874;2024-02-21T02:52:50;23.92;;;22.13;;
11531;SDS011;5822;51.000;5.874;2024-02-21T02:55:16;22.83;;;21.23;;
11531;SDS011;5822;51.000;5.874;2024-02-21T02:57:42;22.67;;;21.07;;
11531;SDS011;5822;51.000;5.874;2024-02-21T03:00:08;24.03;;;22.23;;
11531;SDS011;5822;51.000;5.874;2024-02-21T03:02:38;23.23;;;21.55;;
11531;SDS011;5822;51.000;5.874;2024-02-21T03:05:11;23.20;;;21.50;;
11531;SDS011;5822;51.000;5.874;2024-02-21T03:07:41;21.50;;;20.00;;
11531;SDS011;5822;51.000;5.874;2024-02-21T03:10:07;22.48;;;20.90;;
11531;SDS011;5822;51.000;5.874;2024-02-21T03:12:33;21.50;;;20.10;;
11531;SDS011;5822;51.000;5.874;2024-02-21T03:14:59;21.20;;;19.80;;
11531;SDS011;5822;51.000;5.874;2024-02-21T03:17:25;21.95;;;20.35;;
11531;SDS011;5822;51.000;5.874;2024-02-21T03:19:52;20.90;;;19.50;;
11531;SDS011;5822;51.000;5.874;2024-02-21T03:22:17;22.48;;;20.80;;
11531;SDS011;5822;51.000;5.874;2024-02-21T03:24:44;23.67;;;21.80;;
11531;SDS011;5822;51.000;5.874;2024-02-21T03:27:09;23.65;;;21.85;;
11531;SDS011;5822;51.000;5.874;2024-02-21T03:29:35;22.33;;;20.77;;
11531;SDS011;5822;51.000;5.874;2024-02-21T03:32:00;21.70;;;20.27;;
11531;SDS011;5822;51.000;5.874;2024-02-21T03:34:26;20.83;;;19.42;;
11531;SDS011;5822;51.000;5.874;2024-02-21T03:36:52;23.02;;;21.33;;
11531;SDS011;5822;51.000;5.874;2024-02-21T03:39:18;23.52;;;21.73;;
11531;SDS011;5822;51.000;5.874;2024-02-21T03:41:43;21.60;;;20.10;;
11531;SDS011;5822;51.000;5.874;2024-02-21T03:44:09;21.17;;;19.77;;
11531;SDS011;5822;51.000;5.874;2024-02-21T03:46:35;20.90;;;19.50;;
11531;SDS011;5822;51.000;5.874;2024-02-21T03:49:00;21.03;;;19.53;;
11531;SDS011;5822;51.000;5.874;2024-02-21T03:51:26;21.73;;;20.23;;
11531;SDS011;5822;51.000;5.874;2024-02-21T03:53:51;22.90;;;21.30;;
11531;SDS011;5822;51.000;5.874;2024-02-21T03:56:17;23.00;;;21.30;;
11531;SDS011;5822;51.000;5.874;2024-02-21T03:58:43;21.63;;;20.13;;
11531;SDS011;5822;51.000;5.874;2024-02-21T04:01:08;21.30;;;19.85;;
11531;SDS011;5822;51.000;5.874;2024-02-21T04:03:34;21.50;;;20.00;;
11531;SDS011;5822;51.000;5.874;2024-02-21T04:06:00;21.92;;;20.40;;
11531;SDS011;5822;51.000;5.874;2024-02-21T04:08:25;23.80;;;22.10;;
11531;SDS011;5822;51.000;5.874;2024-02-21T04:10:51;22.43;;;20.83;;
11531;SDS011;5822;51.000;5.874;2024-02-21T04:13:17;23.53;;;21.83;;
11531;SDS011;5822;51.000;5.874;2024-02-21T04:15:42;22.40;;;21.00;;
11531;SDS011;5822;51.000;5.874;2024-02-21T04:18:08;22.47;;;20.87;;
11531;SDS011;5822;51.000;5.874;2024-02-21T04:20:34;21.27;;;19.77;;
11531;SDS011;5822;51.000;5.874;2024-02-21T04:23:00;21.55;;;20.10;;
11531;SDS011;5822;51.000;5.874;2024-02-21T04:25:26;20.67;;;19.27;;
11531;SDS011;5822;51.000;5.874;2024-02-21T04:27:52;23.20;;;21.50;;
11531;SDS011;5822;51.000;5.874;2024-02-21T04:30:17;22.33;;;20.83;;
11531;SDS011;5822;51.000;5.874;2024-02-21T04:32:43;22.33;;;20.83;;
11531;SDS011;5822;51.000;5.874;2024-02-21T04:35:09;21.90;;;20.50;;
11531;SDS011;5822;51.000;5.874;2024-02-21T04:37:34;22.10;;;20.60;;
11531;SDS011;5822;51.000;5.874;2024-02-21T04:40:00;21.93;;;20.50;;
11531;SDS011;5822;51.000;5.874;2024-02-21T04:42:26;21.23;;;19.80;;
11531;SDS011;5822;51.000;5.874;2024-02-21T04:44:51;20.70;;;19.30;;
11531;SDS011;5822;51.000;5.874;2024-02-21T04:47:17;21.50;;;20.00;;
11531;SDS011;5822;51.000;5.874;2024-02-21T04:49:44;22.00;;;20.40;;
11531;SDS011;5822;51.000;5.874;2024-02-21T04:52:09;22.85;;;21.17;;
11531;SDS011;5822;51.000;5.874;2024-02-21T04:54:35;22.90;;;21.23;;
11531;SDS011;5822;51.000;5.874;2024-02-21T04:57:00;22.00;;;20.50;;
11531;SDS011;5822;51.000;5.874;2024-02-21T04:59:26;23.03;;;21.40;;
11531;SDS011;5822;51.000;5.874;2024-02-21T05:01:52;22.10;;;20.50;;
11531;SDS011;5822;51.000;5.874;2024-02-21T05:04:17;23.20;;;21.47;;
11531;SDS011;5822;51.000;5.874;2024-02-21T05:06:43;22.30;;;20.70;;
11531;SDS011;5822;51.000;5.874;2024-02-21T05:09:09;22.38;;;20.77;;
11531;SDS011;5822;51.000;5.874;2024-02-21T05:11:35;22.50;;;20.90;;
11531;SDS011;5822;51.000;5.874;2024-02-21T05:14:01;21.60;;;20.10;;
11531;SDS011;5822;51.000;5.874;2024-02-21T05:16:27;21.85;;;20.25;;
11531;SDS011;5822;51.000;5.874;2024-02-21T05:18:53;21.60;;;20.10;;
11531;SDS011;5822;51.000;5.874;2024-02-21T05:21:19;21.80;;;20.30;;
11531;SDS011;5822;51.000;5.874;2024-02-21T05:23:44;20.67;;;19.27;;
11531;SDS011;5822;51.000;5.874;2024-02-21T05:26:10;22.40;;;20.80;;
11531;SDS011;5822;51.000;5.874;2024-02-21T05:28:35;22.92;;;21.23;;
11531;SDS011;5822;51.000;5.874;2024-02-21T05:31:01;22.15;;;20.65;;
11531;SDS011;5822;51.000;5.874;2024-02-21T05:33:27;21.90;;;20.40;;
11531;SDS011;5822;51.000;5.874;2024-02-21T05:35:53;22.48;;;20.88;;
11531;SDS011;5822;51.000;5.874;2024-02-21T05:38:18;22.50;;;20.90;;
11531;SDS011;5822;51.000;5.874;2024-02-21T05:40:44;21.90;;;20.40;;
11531;SDS011;5822;51.000;5.874;2024-02-21T05:43:10;22.05;;;20.50;;
11531;SDS011;5822;51.000;5.874;2024-02-21T05:45:36;22.85;;;21.25;;
11531;SDS011;5822;51.000;5.874;2024-02-21T05:48:02;21.70;;;20.20;;
11531;SDS011;5822;51.000;5.874;2024-02-21T05:50:30;21.85;;;20.30;;
11531;SDS011;5822;51.000;5.874;2024-02-21T05:52:57;21.50;;;20.00;;
11531;SDS011;5822;51.000;5.874;2024-02-21T05:55:23;21.90;;;20.33;;
11531;SDS011;5822;51.000;5.874;2024-02-21T05:57:49;21.20;;;19.80;;
11531;SDS011;5822;51.000;5.874;2024-02-21T06:00:18;21.48;;;20.08;;
11531;SDS011;5822;51.000;5.874;2024-02-21T06:02:43;22.42;;;20.90;;
11531;SDS011;5822;51.000;5.874;2024-02-21T06:05:09;21.88;;;20.38;;
11531;SDS011;5822;51.000;5.874;2024-02-21T06:07:35;23.25;;;21.45;;
11531;SDS011;5822;51.000;5.874;2024-02-21T06:10:03;22.85;;;21.10;;
11531;SDS011;5822;51.000;5.874;2024-02-21T06:12:32;22.52;;;20.75;;
11531;SDS011;5822;51.000;5.874;2024-02-21T06:14:58;22.30;;;20.60;;
11531;SDS011;5822;51.000;5.874;2024-02-21T06:17:23;22.03;;;20.33;;
11531;SDS011;5822;51.000;5.874;2024-02-21T06:19:49;21.90;;;20.30;;
11531;SDS011;5822;51.000;5.874;2024-02-21T06:22:15;22.07;;;20.47;;
11531;SDS011;5822;51.000;5.874;2024-02-21T06:24:40;22.10;;;20.50;;
11531;SDS011;5822;51.000;5.874;2024-02-21T06:27:06;21.77;;;20.17;;
11531;SDS011;5822;51.000;5.874;2024-02-21T06:29:32;22.38;;;20.67;;
11531;SDS011;5822;51.000;5.874;2024-02-21T06:31:58;22.15;;;20.50;;
11531;SDS011;5822;51.000;5.874;2024-02-21T06:34:24;21.33;;;19.83;;
11531;SDS011;5822;51.000;5.874;2024-02-21T06:36:50;21.70;;;20.10;;
11531;SDS011;5822;51.000;5.874;2024-02-21T06:39:16;21.70;;;20.10;;
11531;SDS011;5822;51.000;5.874;2024-02-21T06:41:42;21.63;;;20.02;;
11531;SDS011;5822;51.000;5.874;2024-02-21T06:44:08;21.17;;;19.58;;
11531;SDS011;5822;51.000;5.874;2024-02-21T06:46:33;20.83;;;19.33;;
11531;SDS011;5822;51.000;5.874;2024-02-21T06:48:59;20.97;;;19.57;;
11531;SDS011;5822;51.000;5.874;2024-02-21T06:51:26;21.45;;;19.95;;
11531;SDS011;5822;51.000;5.874;2024-02-21T06:53:52;21.50;;;19.90;;
11531;SDS011;5822;51.000;5.874;2024-02-21T06:56:18;22.33;;;20.60;;
11531;SDS011;5822;51.000;5.874;2024-02-21T06:58:46;22.88;;;21.08;;
11531;SDS011;5822;51.000;5.874;2024-02-21T07:01:11;22.40;;;20.75;;
11531;SDS011;5822;51.000;5.874;2024-02-21T07:03:37;23.48;;;21.88;;
11531;SDS011;5822;51.000;5.874;2024-02-21T07:06:03;25.98;;;24.27;;
11531;SDS011;5822;51.000;5.874;2024-02-21T07:08:29;34.38;;;32.28;;
11531;SDS011;5822;51.000;5.874;2024-02-21T07:10:54;35.65;;;33.55;;
11531;SDS011;5822;51.000;5.874;2024-02-21T07:13:20;40.70;;;38.40;;
11531;SDS011;5822;51.000;5.874;2024-02-21T07:15:47;42.67;;;40.28;;
11531;SDS011;5822;51.000;5.874;2024-02-21T07:18:13;59.10;;;55.87;;
11531;SDS011;5822;51.000;5.874;2024-02-21T07:20:39;62.73;;;59.43;;
11531;SDS011;5822;51.000;5.874;2024-02-21T07:23:06;71.78;;;67.97;;
11531;SDS011;5822;51.000;5.874;2024-02-21T07:25:32;48.33;;;45.72;;
11531;SDS011;5822;51.000;5.874;2024-02-21T07:27:58;40.85;;;38.45;;
11531;SDS011;5822;51.000;5.874;2024-02-21T07:30:24;39.03;;;36.70;;
11531;SDS011;5822;51.000;5.874;2024-02-21T07:32:49;36.53;;;34.33;;
11531;SDS011;5822;51.000;5.874;2024-02-21T07:35:16;27.58;;;25.75;;
11531;SDS011;5822;51.000;5.874;2024-02-21T07:37:42;25.73;;;24.02;;
11531;SDS011;5822;51.000;5.874;2024-02-21T07:40:17;25.20;;;23.60;;
11531;SDS011;5822;51.000;5.874;2024-02-21T07:42:43;24.25;;;22.65;;
11531;SDS011;5822;51.000;5.874;2024-02-21T07:45:09;29.52;;;27.55;;
11531;SDS011;5822;51.000;5.874;2024-02-21T07:47:35;28.35;;;26.48;;
11531;SDS011;5822;51.000;5.874;2024-02-21T07:50:02;26.98;;;25.23;;
11531;SDS011;5822;51.000;5.874;2024-02-21T07:52:28;24.67;;;23.13;;
11531;SDS011;5822;51.000;5.874;2024-02-21T07:54:54;25.50;;;23.90;;
11531;SDS011;5822;51.000;5.874;2024-02-21T07:57:19;26.03;;;24.33;;
11531;SDS011;5822;51.000;5.874;2024-02-21T07:59:45;27.13;;;25.37;;
11531;SDS011;5822;51.000;5.874;2024-02-21T08:02:13;25.08;;;23.50;;
11531;SDS011;5822;51.000;5.874;2024-02-21T08:04:41;25.08;;;23.58;;
11531;SDS011;5822;51.000;5.874;2024-02-21T08:07:07;25.77;;;24.17;;
11531;SDS011;5822;51.000;5.874;2024-02-21T08:09:33;24.67;;;23.07;;
11531;SDS011;5822;51.000;5.874;2024-02-21T08:12:00;26.85;;;25.05;;
11531;SDS011;5822;51.000;5.874;2024-02-21T08:14:25;25.83;;;24.20;;
11531;SDS011;5822;51.000;5.874;2024-02-21T08:16:51;25.80;;;24.00;;
11531;SDS011;5822;51.000;5.874;2024-02-21T08:19:20;26.63;;;25.03;;
11531;SDS011;5822;51.000;5.874;2024-02-21T08:21:46;26.63;;;24.93;;
11531;SDS011;5822;51.000;5.874;2024-02-21T08:24:12;26.63;;;24.93;;
11531;SDS011;5822;51.000;5.874;2024-02-21T08:26:40;24.70;;;23.10;;
11531;SDS011;5822;51.000;5.874;2024-02-21T08:29:06;25.00;;;23.30;;
11531;SDS011;5822;51.000;5.874;2024-02-21T08:31:32;25.60;;;23.90;;
11531;SDS011;5822;51.000;5.874;2024-02-21T08:33:58;25.97;;;24.37;;
11531;SDS011;5822;51.000;5.874;2024-02-21T08:36:30;25.95;;;24.15;;
11531;SDS011;5822;51.000;5.874;2024-02-21T08:38:57;26.25;;;24.65;;
11531;SDS011;5822;51.000;5.874;2024-02-21T08:41:23;26.93;;;25.03;;
11531;SDS011;5822;51.000;5.874;2024-02-21T08:43:52;26.73;;;25.13;;
11531;SDS011;5822;51.000;5.874;2024-02-21T08:46:19;26.08;;;24.38;;
11531;SDS011;5822;51.000;5.874;2024-02-21T08:48:49;24.48;;;22.98;;
11531;SDS011;5822;51.000;5.874;2024-02-21T08:51:16;25.20;;;23.50;;
11531;SDS011;5822;51.000;5.874;2024-02-21T08:53:43;25.92;;;24.13;;
11531;SDS011;5822;51.000;5.874;2024-02-21T08:56:09;25.27;;;23.48;;
11531;SDS011;5822;51.000;5.874;2024-02-21T08:58:35;25.02;;;23.33;;
11531;SDS011;5822;51.000;5.874;2024-02-21T09:01:02;25.73;;;24.02;;
11531;SDS011;5822;51.000;5.874;2024-02-21T09:03:32;25.70;;;23.90;;
11531;SDS011;5822;51.000;5.874;2024-02-21T09:05:59;25.67;;;23.97;;
11531;SDS011;5822;51.000;5.874;2024-02-21T09:08:25;24.95;;;23.15;;
11531;SDS011;5822;51.000;5.874;2024-02-21T09:10:51;23.23;;;21.73;;
11531;SDS011;5822;51.000;5.874;2024-02-21T09:13:17;24.35;;;22.65;;
11531;SDS011;5822;51.000;5.874;2024-02-21T09:15:43;24.95;;;23.27;;
11531;SDS011;5822;51.000;5.874;2024-02-21T09:18:09;24.52;;;22.92;;
11531;SDS011;5822;51.000;5.874;2024-02-21T09:20:35;22.92;;;21.50;;
11531;SDS011;5822;51.000;5.874;2024-02-21T09:23:00;23.80;;;22.20;;
11531;SDS011;5822;51.000;5.874;2024-02-21T09:25:26;24.20;;;22.60;;
11531;SDS011;5822;51.000;5.874;2024-02-21T09:27:53;22.70;;;21.20;;
11531;SDS011;5822;51.000;5.874;2024-02-21T09:30:19;22.85;;;21.35;;
11531;SDS011;5822;51.000;5.874;2024-02-21T09:32:45;22.80;;;21.30;;
11531;SDS011;5822;51.000;5.874;2024-02-21T09:35:11;23.58;;;22.00;;
11531;SDS011;5822;51.000;5.874;2024-02-21T09:37:37;23.13;;;21.58;;
11531;SDS011;5822;51.000;5.874;2024-02-21T09:40:04;24.60;;;22.90;;
11531;SDS011;5822;51.000;5.874;2024-02-21T09:45:04;23.42;;;21.83;;
11531;SDS011;5822;51.000;5.874;2024-02-21T09:47:39;23.52;;;22.00;;
11531;SDS011;5822;51.000;5.874;2024-02-21T09:50:14;22.50;;;21.10;;
11531;SDS011;5822;51.000;5.874;2024-02-21T09:52:40;24.25;;;22.65;;
11531;SDS011;5822;51.000;5.874;2024-02-21T09:55:08;25.48;;;23.77;;
11531;SDS011;5822;51.000;5.874;2024-02-21T09:57:37;25.00;;;23.30;;
11531;SDS011;5822;51.000;5.874;2024-02-21T10:00:03;23.53;;;21.93;;
11531;SDS011;5822;51.000;5.874;2024-02-21T10:02:33;23.90;;;22.40;;
11531;SDS011;5822;51.000;5.874;2024-02-21T10:04:59;24.17;;;22.57;;
11531;SDS011;5822;51.000;5.874;2024-02-21T10:07:24;25.67;;;23.97;;
11531;SDS011;5822;51.000;5.874;2024-02-21T10:10:00;24.70;;;23.10;;
11531;SDS011;5822;51.000;5.874;2024-02-21T10:12:26;24.33;;;22.63;;
11531;SDS011;5822;51.000;5.874;2024-02-21T10:15:04;24.35;;;22.65;;
11531;SDS011;5822;51.000;5.874;2024-02-21T10:17:34;24.48;;;22.83;;
11531;SDS011;5822;51.000;5.874;2024-02-21T10:20:11;26.08;;;24.23;;
11531;SDS011;5822;51.000;5.874;2024-02-21T10:22:37;24.65;;;22.95;;
11531;SDS011;5822;51.000;5.874;2024-02-21T10:25:08;24.85;;;23.15;;
11531;SDS011;5822;51.000;5.874;2024-02-21T10:27:34;23.80;;;22.20;;
11531;SDS011;5822;51.000;5.874;2024-02-21T10:30:00;23.80;;;22.30;;
11531;SDS011;5822;51.000;5.874;2024-02-21T10:32:26;24.67;;;23.07;;
11531;SDS011;5822;51.000;5.874;2024-02-21T10:35:00;24.27;;;22.67;;
11531;SDS011;5822;51.000;5.874;2024-02-21T10:37:33;23.85;;;22.25;;
11531;SDS011;5822;51.000;5.874;2024-02-21T10:40:00;23.70;;;22.00;;
11531;SDS011;5822;51.000;5.874;2024-02-21T10:42:29;26.20;;;24.50;;
11531;SDS011;5822;51.000;5.874;2024-02-21T10:44:57;27.58;;;25.73;;
11531;SDS011;5822;51.000;5.874;2024-02-21T10:47:29;27.10;;;25.50;;
11531;SDS011;5822;51.000;5.874;2024-02-21T10:49:58;27.58;;;25.67;;
11531;SDS011;5822;51.000;5.874;2024-02-21T10:52:36;27.38;;;25.58;;
11531;SDS011;5822;51.000;5.874;2024-02-21T10:55:38;27.83;;;26.13;;
11531;SDS011;5822;51.000;5.874;2024-02-21T10:58:06;25.00;;;23.23;;
11531;SDS011;5822;51.000;5.874;2024-02-21T11:00:35;25.00;;;23.30;;
11531;SDS011;5822;51.000;5.874;2024-02-21T11:03:02;24.85;;;23.15;;
11531;SDS011;5822;51.000;5.874;2024-02-21T11:05:28;25.35;;;23.63;;
11531;SDS011;5822;51.000;5.874;2024-02-21T11:07:54;23.80;;;22.27;;
11531;SDS011;5822;51.000;5.874;2024-02-21T11:10:24;24.77;;;23.08;;
11531;SDS011;5822;51.000;5.874;2024-02-21T11:12:53;24.50;;;22.90;;
11531;SDS011;5822;51.000;5.874;2024-02-21T11:15:30;24.48;;;22.88;;
11531;SDS011;5822;51.000;5.874;2024-02-21T11:17:56;23.95;;;22.35;;
11531;SDS011;5822;51.000;5.874;2024-02-21T11:20:31;29.60;;;27.75;;
11531;SDS011;5822;51.000;5.874;2024-02-21T11:22:59;30.65;;;28.75;;
11531;SDS011;5822;51.000;5.874;2024-02-21T11:25:26;29.23;;;27.52;;
11531;SDS011;5822;51.000;5.874;2024-02-21T11:27:58;28.17;;;26.45;;
11531;SDS011;5822;51.000;5.874;2024-02-21T11:30:31;28.25;;;26.55;;
11531;SDS011;5822;51.000;5.874;2024-02-21T11:33:05;24.05;;;22.45;;
11531;SDS011;5822;51.000;5.874;2024-02-21T11:35:32;24.58;;;22.98;;
11531;SDS011;5822;51.000;5.874;2024-02-21T11:38:12;24.20;;;22.70;;
11531;SDS011;5822;51.000;5.874;2024-02-21T11:40:45;24.98;;;23.48;;
11531;SDS011;5822;51.000;5.874;2024-02-21T11:43:11;26.60;;;25.00;;
11531;SDS011;5822;51.000;5.874;2024-02-21T11:45:37;29.55;;;27.80;;
11531;SDS011;5822;51.000;5.874;2024-02-21T11:48:05;31.67;;;29.88;;
11531;SDS011;5822;51.000;5.874;2024-02-21T11:50:31;33.43;;;31.53;;
11531;SDS011;5822;51.000;5.874;2024-02-21T11:53:00;34.05;;;31.95;;
11531;SDS011;5822;51.000;5.874;2024-02-21T11:55:26;33.00;;;31.10;;
11531;SDS011;5822;51.000;5.874;2024-02-21T11:57:51;30.27;;;28.37;;
11531;SDS011;5822;51.000;5.874;2024-02-21T12:00:18;28.10;;;26.35;;
11531;SDS011;5822;51.000;5.874;2024-02-21T12:02:49;27.30;;;25.60;;
11531;SDS011;5822;51.000;5.874;2024-02-21T12:05:15;28.55;;;26.80;;
11531;SDS011;5822;51.000;5.874;2024-02-21T12:07:43;27.25;;;25.50;;
11531;SDS011;5822;51.000;5.874;2024-02-21T12:10:09;26.77;;;25.08;;
11531;SDS011;5822;51.000;5.874;2024-02-21T12:12:36;28.50;;;26.77;;
11531;SDS011;5822;51.000;5.874;2024-02-21T12:15:06;29.35;;;27.55;;
11531;SDS011;5822;51.000;5.874;2024-02-21T12:17:33;29.17;;;27.47;;
11531;SDS011;5822;51.000;5.874;2024-02-21T12:19:59;29.05;;;27.25;;
11531;SDS011;5822;51.000;5.874;2024-02-21T12:22:25;28.80;;;27.08;;
11531;SDS011;5822;51.000;5.874;2024-02-21T12:24:52;30.07;;;28.27;;
11531;SDS011;5822;51.000;5.874;2024-02-21T12:27:18;25.10;;;23.43;;
11531;SDS011;5822;51.000;5.874;2024-02-21T12:29:44;25.20;;;23.57;;
11531;SDS011;5822;51.000;5.874;2024-02-21T12:32:09;25.10;;;23.30;;
11531;SDS011;5822;51.000;5.874;2024-02-21T12:34:35;25.08;;;23.38;;
11531;SDS011;5822;51.000;5.874;2024-02-21T12:37:01;27.90;;;26.20;;
11531;SDS011;5822;51.000;5.874;2024-02-21T12:39:28;28.90;;;27.10;;
11531;SDS011;5822;51.000;5.874;2024-02-21T12:41:54;28.88;;;27.00;;
11531;SDS011;5822;51.000;5.874;2024-02-21T12:44:21;28.38;;;26.67;;
11531;SDS011;5822;51.000;5.874;2024-02-21T12:46:47;28.17;;;26.42;;
11531;SDS011;5822;51.000;5.874;2024-02-21T12:49:17;26.90;;;25.20;;
11531;SDS011;5822;51.000;5.874;2024-02-21T12:51:43;26.42;;;24.73;;
11531;SDS011;5822;51.000;5.874;2024-02-21T12:54:11;24.30;;;22.80;;
11531;SDS011;5822;51.000;5.874;2024-02-21T12:56:37;23.10;;;21.60;;
11531;SDS011;5822;51.000;5.874;2024-02-21T12:59:04;22.88;;;21.38;;
11531;SDS011;5822;51.000;5.874;2024-02-21T13:01:30;24.10;;;22.50;;
11531;SDS011;5822;51.000;5.874;2024-02-21T13:03:56;23.42;;;21.90;;
11531;SDS011;5822;51.000;5.874;2024-02-21T13:06:24;22.95;;;21.45;;
11531;SDS011;5822;51.000;5.874;2024-02-21T13:08:50;22.60;;;21.10;;
11531;SDS011;5822;51.000;5.874;2024-02-21T13:11:16;22.20;;;20.80;;
11531;SDS011;5822;51.000;5.874;2024-02-21T13:13:41;23.70;;;22.10;;
11531;SDS011;5822;51.000;5.874;2024-02-21T13:16:07;22.05;;;20.65;;
11531;SDS011;5822;51.000;5.874;2024-02-21T13:18:34;22.50;;;21.00;;
11531;SDS011;5822;51.000;5.874;2024-02-21T13:21:00;22.38;;;20.98;;
11531;SDS011;5822;51.000;5.874;2024-02-21T13:23:26;22.40;;;20.97;;
11531;SDS011;5822;51.000;5.874;2024-02-21T13:25:51;24.17;;;22.67;;
11531;SDS011;5822;51.000;5.874;2024-02-21T13:28:17;22.70;;;21.27;;
11531;SDS011;5822;51.000;5.874;2024-02-21T13:30:43;22.63;;;21.23;;
11531;SDS011;5822;51.000;5.874;2024-02-21T13:33:08;22.20;;;20.80;;
11531;SDS011;5822;51.000;5.874;2024-02-21T13:35:35;22.42;;;21.02;;
11531;SDS011;5822;51.000;5.874;2024-02-21T13:38:01;22.13;;;20.73;;
11531;SDS011;5822;51.000;5.874;2024-02-21T13:40:28;22.92;;;21.35;;
11531;SDS011;5822;51.000;5.874;2024-02-21T13:42:53;23.17;;;21.67;;
11531;SDS011;5822;51.000;5.874;2024-02-21T13:45:19;25.30;;;23.60;;
11531;SDS011;5822;51.000;5.874;2024-02-21T13:47:45;25.10;;;23.45;;
11531;SDS011;5822;51.000;5.874;2024-02-21T13:50:11;25.13;;;23.42;;
11531;SDS011;5822;51.000;5.874;2024-02-21T13:52:39;26.35;;;24.55;;
11531;SDS011;5822;51.000;5.874;2024-02-21T13:55:05;26.48;;;24.55;;
11531;SDS011;5822;51.000;5.874;2024-02-21T13:57:33;29.60;;;27.20;;
11531;SDS011;5822;51.000;5.874;2024-02-21T14:00:00;30.35;;;28.10;;
11531;SDS011;5822;51.000;5.874;2024-02-21T14:02:25;31.40;;;29.10;;
11531;SDS011;5822;51.000;5.874;2024-02-21T14:04:51;29.25;;;27.15;;
11531;SDS011;5822;51.000;5.874;2024-02-21T14:07:17;29.63;;;27.42;;
11531;SDS011;5822;51.000;5.874;2024-02-21T14:09:42;28.03;;;26.13;;
11531;SDS011;5822;51.000;5.874;2024-02-21T14:12:08;25.33;;;23.63;;
11531;SDS011;5822;51.000;5.874;2024-02-21T14:14:36;24.30;;;22.60;;
11531;SDS011;5822;51.000;5.874;2024-02-21T14:17:02;22.95;;;21.45;;
11531;SDS011;5822;51.000;5.874;2024-02-21T14:19:29;22.17;;;20.77;;
11531;SDS011;5822;51.000;5.874;2024-02-21T14:21:55;23.35;;;21.83;;
11531;SDS011;5822;51.000;5.874;2024-02-21T14:24:21;22.85;;;21.35;;
11531;SDS011;5822;51.000;5.874;2024-02-21T14:26:47;22.52;;;21.02;;
11531;SDS011;5822;51.000;5.874;2024-02-21T14:29:13;22.40;;;21.00;;
11531;SDS011;5822;51.000;5.874;2024-02-21T14:31:39;21.90;;;20.50;;
11531;SDS011;5822;51.000;5.874;2024-02-21T14:34:05;22.10;;;20.70;;